sensor_id;sensor_type;location;lat;lon;timestamp;P1;durP1;ratioP1;P2;durP2;ratioP2
34737;SDS011;39910;47.154;27.614;2023-12-22T00:01:12;10.77;;;10.27;;
34737;SDS011;39910;47.154;27.614;2023-12-22T00:03:40;10.98;;;10.48;;
34737;SDS011;39910;47.154;27.614;2023-12-22T00:06:06;11.25;;;10.70;;
34737;SDS011;39910;47.154;27.614;2023-12-22T00:08:31;10.73;;;10.23;;
34737;SDS011;39910;47.154;27.614;2023-12-22T00:10:56;11.35;;;10.77;;
34737;SDS011;39910;47.154;27.614;2023-12-22T00:13:22;10.55;;;10.05;;
34737;SDS011;39910;47.154;27.614;2023-12-22T00:15:48;10.57;;;10.07;;
34737;SDS011;39910;47.154;27.614;2023-12-22T00:18:13;10.80;;;10.30;;
34737;SDS011;39910;47.154;27.614;2023-12-22T00:20:38;10.70;;;10.20;;
34737;SDS011;39910;47.154;27.614;2023-12-22T00:23:04;10.80;;;10.30;;
34737;SDS011;39910;47.154;27.614;2023-12-22T00:25:29;11.15;;;10.65;;
34737;SDS011;39910;47.154;27.614;2023-12-22T00:27:54;11.05;;;10.55;;
34737;SDS011;39910;47.154;27.614;2023-12-22T00:30:20;10.57;;;10.07;;
34737;SDS011;39910;47.154;27.614;2023-12-22T00:32:45;11.45;;;10.93;;
34737;SDS011;39910;47.154;27.614;2023-12-22T00:35:10;10.88;;;10.38;;
34737;SDS011;39910;47.154;27.614;2023-12-22T00:37:36;10.95;;;10.45;;
34737;SDS011;39910;47.154;27.614;2023-12-22T00:40:01;10.93;;;10.43;;
34737;SDS011;39910;47.154;27.614;2023-12-22T00:42:30;11.18;;;10.68;;
34737;SDS011;39910;47.154;27.614;2023-12-22T00:44:55;10.90;;;10.40;;
34737;SDS011;39910;47.154;27.614;2023-12-22T00:47:21;11.10;;;10.60;;
34737;SDS011;39910;47.154;27.614;2023-12-22T00:49:46;11.15;;;10.65;;
34737;SDS011;39910;47.154;27.614;2023-12-22T00:52:11;11.10;;;10.60;;
34737;SDS011;39910;47.154;27.614;2023-12-22T00:54:37;11.65;;;11.07;;
34737;SDS011;39910;47.154;27.614;2023-12-22T00:57:02;11.50;;;10.98;;
34737;SDS011;39910;47.154;27.614;2023-12-22T00:59:28;11.30;;;10.80;;
34737;SDS011;39910;47.154;27.614;2023-12-22T01:01:53;11.30;;;10.80;;
34737;SDS011;39910;47.154;27.614;2023-12-22T01:04:18;11.43;;;10.93;;
34737;SDS011;39910;47.154;27.614;2023-12-22T01:06:44;11.05;;;10.55;;
34737;SDS011;39910;47.154;27.614;2023-12-22T01:09:09;10.80;;;10.30;;
34737;SDS011;39910;47.154;27.614;2023-12-22T01:11:35;11.10;;;10.60;;
34737;SDS011;39910;47.154;27.614;2023-12-22T01:14:00;12.07;;;11.48;;
34737;SDS011;39910;47.154;27.614;2023-12-22T01:16:25;11.68;;;11.07;;
34737;SDS011;39910;47.154;27.614;2023-12-22T01:18:51;11.07;;;10.57;;
34737;SDS011;39910;47.154;27.614;2023-12-22T01:21:16;11.18;;;10.68;;
34737;SDS011;39910;47.154;27.614;2023-12-22T01:23:42;11.18;;;10.68;;
34737;SDS011;39910;47.154;27.614;2023-12-22T01:26:07;11.80;;;11.25;;
34737;SDS011;39910;47.154;27.614;2023-12-22T01:28:35;11.50;;;11.00;;
34737;SDS011;39910;47.154;27.614;2023-12-22T01:31:01;11.48;;;10.98;;
34737;SDS011;39910;47.154;27.614;2023-12-22T01:33:26;11.25;;;10.75;;
34737;SDS011;39910;47.154;27.614;2023-12-22T01:35:51;11.05;;;10.55;;
34737;SDS011;39910;47.154;27.614;2023-12-22T01:38:17;11.73;;;11.13;;
34737;SDS011;39910;47.154;27.614;2023-12-22T01:40:42;11.35;;;10.85;;
34737;SDS011;39910;47.154;27.614;2023-12-22T01:43:07;11.32;;;10.82;;
34737;SDS011;39910;47.154;27.614;2023-12-22T01:45:33;11.60;;;11.10;;
34737;SDS011;39910;47.154;27.614;2023-12-22T01:47:58;11.60;;;11.10;;
34737;SDS011;39910;47.154;27.614;2023-12-22T01:50:24;11.50;;;11.00;;
34737;SDS011;39910;47.154;27.614;2023-12-22T01:52:49;12.38;;;11.77;;
34737;SDS011;39910;47.154;27.614;2023-12-22T01:55:15;11.20;;;10.70;;
34737;SDS011;39910;47.154;27.614;2023-12-22T01:57:41;11.77;;;11.18;;
34737;SDS011;39910;47.154;27.614;2023-12-22T02:00:08;11.23;;;10.73;;
34737;SDS011;39910;47.154;27.614;2023-12-22T02:02:33;11.35;;;10.85;;
34737;SDS011;39910;47.154;27.614;2023-12-22T02:04:59;11.30;;;10.80;;
34737;SDS011;39910;47.154;27.614;2023-12-22T02:07:24;11.25;;;10.75;;
34737;SDS011;39910;47.154;27.614;2023-12-22T02:09:50;11.57;;;11.07;;
34737;SDS011;39910;47.154;27.614;2023-12-22T02:12:15;11.40;;;10.90;;
34737;SDS011;39910;47.154;27.614;2023-12-22T02:14:40;11.10;;;10.60;;
34737;SDS011;39910;47.154;27.614;2023-12-22T02:17:20;12.00;;;11.40;;
34737;SDS011;39910;47.154;27.614;2023-12-22T02:19:48;11.15;;;10.65;;
34737;SDS011;39910;47.154;27.614;2023-12-22T02:22:14;11.40;;;10.90;;
34737;SDS011;39910;47.154;27.614;2023-12-22T02:24:40;11.50;;;11.00;;
34737;SDS011;39910;47.154;27.614;2023-12-22T02:27:15;11.60;;;11.10;;
34737;SDS011;39910;47.154;27.614;2023-12-22T02:29:43;11.63;;;11.07;;
34737;SDS011;39910;47.154;27.614;2023-12-22T02:32:12;11.10;;;10.60;;
34737;SDS011;39910;47.154;27.614;2023-12-22T02:34:39;11.40;;;10.90;;
34737;SDS011;39910;47.154;27.614;2023-12-22T02:37:07;11.82;;;11.23;;
34737;SDS011;39910;47.154;27.614;2023-12-22T02:39:33;12.18;;;11.57;;
34737;SDS011;39910;47.154;27.614;2023-12-22T02:41:59;12.07;;;11.48;;
34737;SDS011;39910;47.154;27.614;2023-12-22T02:44:25;11.85;;;11.25;;
34737;SDS011;39910;47.154;27.614;2023-12-22T02:46:51;11.32;;;10.82;;
34737;SDS011;39910;47.154;27.614;2023-12-22T02:49:16;11.40;;;10.90;;
34737;SDS011;39910;47.154;27.614;2023-12-22T02:51:43;10.95;;;10.45;;
34737;SDS011;39910;47.154;27.614;2023-12-22T02:54:09;11.93;;;11.32;;
34737;SDS011;39910;47.154;27.614;2023-12-22T02:56:35;11.10;;;10.60;;
34737;SDS011;39910;47.154;27.614;2023-12-22T02:59:01;11.30;;;10.80;;
34737;SDS011;39910;47.154;27.614;2023-12-22T03:01:26;11.60;;;11.10;;
34737;SDS011;39910;47.154;27.614;2023-12-22T03:03:51;11.20;;;10.70;;
34737;SDS011;39910;47.154;27.614;2023-12-22T03:06:16;11.07;;;10.57;;
34737;SDS011;39910;47.154;27.614;2023-12-22T03:08:42;11.90;;;11.30;;
34737;SDS011;39910;47.154;27.614;2023-12-22T03:11:07;11.35;;;10.85;;
34737;SDS011;39910;47.154;27.614;2023-12-22T03:13:32;11.38;;;10.88;;
34737;SDS011;39910;47.154;27.614;2023-12-22T03:15:58;11.43;;;10.93;;
34737;SDS011;39910;47.154;27.614;2023-12-22T03:18:23;11.48;;;10.98;;
34737;SDS011;39910;47.154;27.614;2023-12-22T03:20:48;11.90;;;11.32;;
34737;SDS011;39910;47.154;27.614;2023-12-22T03:23:14;11.30;;;10.80;;
34737;SDS011;39910;47.154;27.614;2023-12-22T03:25:39;11.80;;;11.20;;
34737;SDS011;39910;47.154;27.614;2023-12-22T03:28:04;12.27;;;11.68;;
34737;SDS011;39910;47.154;27.614;2023-12-22T03:30:30;11.68;;;11.10;;
34737;SDS011;39910;47.154;27.614;2023-12-22T03:32:56;12.02;;;11.43;;
34737;SDS011;39910;47.154;27.614;2023-12-22T03:35:22;12.07;;;11.48;;
34737;SDS011;39910;47.154;27.614;2023-12-22T03:37:47;11.50;;;11.00;;
34737;SDS011;39910;47.154;27.614;2023-12-22T03:40:12;11.80;;;11.20;;
34737;SDS011;39910;47.154;27.614;2023-12-22T03:42:37;11.23;;;10.73;;
34737;SDS011;39910;47.154;27.614;2023-12-22T03:45:03;11.30;;;10.80;;
34737;SDS011;39910;47.154;27.614;2023-12-22T03:47:28;10.98;;;10.48;;
34737;SDS011;39910;47.154;27.614;2023-12-22T03:49:54;11.38;;;10.88;;
34737;SDS011;39910;47.154;27.614;2023-12-22T03:52:19;11.40;;;10.90;;
34737;SDS011;39910;47.154;27.614;2023-12-22T03:54:45;11.75;;;11.15;;
34737;SDS011;39910;47.154;27.614;2023-12-22T03:57:10;11.70;;;11.20;;
34737;SDS011;39910;47.154;27.614;2023-12-22T03:59:35;11.95;;;11.35;;
34737;SDS011;39910;47.154;27.614;2023-12-22T04:02:01;11.93;;;11.32;;
34737;SDS011;39910;47.154;27.614;2023-12-22T04:04:27;11.63;;;11.10;;
34737;SDS011;39910;47.154;27.614;2023-12-22T04:06:53;11.73;;;11.13;;
34737;SDS011;39910;47.154;27.614;2023-12-22T04:09:18;11.43;;;10.93;;
34737;SDS011;39910;47.154;27.614;2023-12-22T04:11:44;11.50;;;11.00;;
34737;SDS011;39910;47.154;27.614;2023-12-22T04:14:09;11.60;;;11.10;;
34737;SDS011;39910;47.154;27.614;2023-12-22T04:16:36;10.73;;;10.23;;
34737;SDS011;39910;47.154;27.614;2023-12-22T04:19:01;12.20;;;11.60;;
34737;SDS011;39910;47.154;27.614;2023-12-22T04:21:27;11.20;;;10.70;;
34737;SDS011;39910;47.154;27.614;2023-12-22T04:23:52;11.48;;;10.98;;
34737;SDS011;39910;47.154;27.614;2023-12-22T04:26:17;11.98;;;11.38;;
34737;SDS011;39910;47.154;27.614;2023-12-22T04:28:43;12.20;;;11.60;;
34737;SDS011;39910;47.154;27.614;2023-12-22T04:31:08;11.82;;;11.23;;
34737;SDS011;39910;47.154;27.614;2023-12-22T04:33:33;11.55;;;11.05;;
34737;SDS011;39910;47.154;27.614;2023-12-22T04:35:59;11.40;;;10.90;;
34737;SDS011;39910;47.154;27.614;2023-12-22T04:38:24;11.18;;;10.68;;
34737;SDS011;39910;47.154;27.614;2023-12-22T04:40:49;11.35;;;10.85;;
34737;SDS011;39910;47.154;27.614;2023-12-22T04:43:15;11.23;;;10.73;;
34737;SDS011;39910;47.154;27.614;2023-12-22T04:45:40;11.10;;;10.60;;
34737;SDS011;39910;47.154;27.614;2023-12-22T04:48:06;12.38;;;11.77;;
34737;SDS011;39910;47.154;27.614;2023-12-22T04:50:31;11.60;;;11.10;;
34737;SDS011;39910;47.154;27.614;2023-12-22T04:52:56;11.50;;;11.00;;
34737;SDS011;39910;47.154;27.614;2023-12-22T04:55:22;11.80;;;11.20;;
34737;SDS011;39910;47.154;27.614;2023-12-22T04:57:47;11.73;;;11.15;;
34737;SDS011;39910;47.154;27.614;2023-12-22T05:00:12;11.40;;;10.90;;
34737;SDS011;39910;47.154;27.614;2023-12-22T05:02:38;12.00;;;11.40;;
34737;SDS011;39910;47.154;27.614;2023-12-22T05:05:03;11.65;;;11.10;;
34737;SDS011;39910;47.154;27.614;2023-12-22T05:07:29;11.32;;;10.82;;
34737;SDS011;39910;47.154;27.614;2023-12-22T05:09:55;11.25;;;10.75;;
34737;SDS011;39910;47.154;27.614;2023-12-22T05:12:21;11.25;;;10.75;;
34737;SDS011;39910;47.154;27.614;2023-12-22T05:14:46;11.35;;;10.85;;
34737;SDS011;39910;47.154;27.614;2023-12-22T05:17:11;11.75;;;11.15;;
34737;SDS011;39910;47.154;27.614;2023-12-22T05:19:37;11.40;;;10.90;;
34737;SDS011;39910;47.154;27.614;2023-12-22T05:22:03;11.85;;;11.25;;
34737;SDS011;39910;47.154;27.614;2023-12-22T05:24:28;12.38;;;11.77;;
34737;SDS011;39910;47.154;27.614;2023-12-22T05:26:54;12.05;;;11.45;;
34737;SDS011;39910;47.154;27.614;2023-12-22T05:29:19;11.38;;;10.88;;
34737;SDS011;39910;47.154;27.614;2023-12-22T05:31:45;11.30;;;10.80;;
34737;SDS011;39910;47.154;27.614;2023-12-22T05:34:10;11.07;;;10.57;;
34737;SDS011;39910;47.154;27.614;2023-12-22T05:36:35;11.50;;;11.00;;
34737;SDS011;39910;47.154;27.614;2023-12-22T05:39:01;11.32;;;10.82;;
34737;SDS011;39910;47.154;27.614;2023-12-22T05:41:26;11.93;;;11.32;;
34737;SDS011;39910;47.154;27.614;2023-12-22T05:43:52;11.80;;;11.20;;
34737;SDS011;39910;47.154;27.614;2023-12-22T05:46:17;11.88;;;11.27;;
34737;SDS011;39910;47.154;27.614;2023-12-22T05:48:43;12.10;;;11.50;;
34737;SDS011;39910;47.154;27.614;2023-12-22T05:51:08;11.05;;;10.55;;
34737;SDS011;39910;47.154;27.614;2023-12-22T05:53:38;11.70;;;11.13;;
34737;SDS011;39910;47.154;27.614;2023-12-22T05:56:04;12.15;;;11.55;;
34737;SDS011;39910;47.154;27.614;2023-12-22T05:58:29;11.98;;;11.40;;
34737;SDS011;39910;47.154;27.614;2023-12-22T06:00:55;11.48;;;10.98;;
34737;SDS011;39910;47.154;27.614;2023-12-22T06:03:20;11.75;;;11.15;;
34737;SDS011;39910;47.154;27.614;2023-12-22T06:05:45;11.20;;;10.70;;
34737;SDS011;39910;47.154;27.614;2023-12-22T06:08:11;11.20;;;10.70;;
34737;SDS011;39910;47.154;27.614;2023-12-22T06:10:36;12.02;;;11.43;;
34737;SDS011;39910;47.154;27.614;2023-12-22T06:13:01;12.40;;;11.80;;
34737;SDS011;39910;47.154;27.614;2023-12-22T06:15:29;12.93;;;12.23;;
34737;SDS011;39910;47.154;27.614;2023-12-22T06:17:54;12.25;;;11.65;;
34737;SDS011;39910;47.154;27.614;2023-12-22T06:20:19;12.20;;;11.60;;
34737;SDS011;39910;47.154;27.614;2023-12-22T06:22:45;13.10;;;12.40;;
34737;SDS011;39910;47.154;27.614;2023-12-22T06:25:10;11.45;;;10.95;;
34737;SDS011;39910;47.154;27.614;2023-12-22T06:27:35;13.55;;;12.85;;
34737;SDS011;39910;47.154;27.614;2023-12-22T06:30:02;11.20;;;10.70;;
34737;SDS011;39910;47.154;27.614;2023-12-22T06:32:28;11.25;;;10.75;;
34737;SDS011;39910;47.154;27.614;2023-12-22T06:34:53;11.88;;;11.30;;
34737;SDS011;39910;47.154;27.614;2023-12-22T06:37:18;12.32;;;11.73;;
34737;SDS011;39910;47.154;27.614;2023-12-22T06:39:44;12.10;;;11.50;;
34737;SDS011;39910;47.154;27.614;2023-12-22T06:42:09;12.73;;;12.13;;
34737;SDS011;39910;47.154;27.614;2023-12-22T06:44:41;12.35;;;11.75;;
34737;SDS011;39910;47.154;27.614;2023-12-22T06:47:06;13.10;;;12.40;;
34737;SDS011;39910;47.154;27.614;2023-12-22T06:49:31;12.40;;;11.80;;
34737;SDS011;39910;47.154;27.614;2023-12-22T06:51:57;13.43;;;12.73;;
34737;SDS011;39910;47.154;27.614;2023-12-22T06:54:22;12.02;;;11.43;;
34737;SDS011;39910;47.154;27.614;2023-12-22T06:56:47;12.60;;;12.00;;
34737;SDS011;39910;47.154;27.614;2023-12-22T06:59:13;12.63;;;12.02;;
34737;SDS011;39910;47.154;27.614;2023-12-22T07:01:38;12.00;;;11.40;;
34737;SDS011;39910;47.154;27.614;2023-12-22T07:04:04;13.05;;;12.35;;
34737;SDS011;39910;47.154;27.614;2023-12-22T07:06:30;12.02;;;11.43;;
34737;SDS011;39910;47.154;27.614;2023-12-22T07:11:40;12.55;;;11.95;;
34737;SDS011;39910;47.154;27.614;2023-12-22T07:14:05;12.07;;;11.48;;
34737;SDS011;39910;47.154;27.614;2023-12-22T07:18:57;12.30;;;11.70;;
34737;SDS011;39910;47.154;27.614;2023-12-22T07:21:23;12.80;;;12.20;;
34737;SDS011;39910;47.154;27.614;2023-12-22T07:23:48;12.40;;;11.80;;
34737;SDS011;39910;47.154;27.614;2023-12-22T07:26:13;12.77;;;12.18;;
34737;SDS011;39910;47.154;27.614;2023-12-22T07:28:39;13.40;;;12.70;;
34737;SDS011;39910;47.154;27.614;2023-12-22T07:31:04;12.80;;;12.20;;
34737;SDS011;39910;47.154;27.614;2023-12-22T07:33:30;12.07;;;11.48;;
34737;SDS011;39910;47.154;27.614;2023-12-22T07:35:55;13.55;;;12.85;;
34737;SDS011;39910;47.154;27.614;2023-12-22T07:38:21;12.55;;;11.95;;
34737;SDS011;39910;47.154;27.614;2023-12-22T07:40:46;12.90;;;12.30;;
34737;SDS011;39910;47.154;27.614;2023-12-22T07:43:12;13.50;;;12.80;;
34737;SDS011;39910;47.154;27.614;2023-12-22T07:45:38;12.60;;;12.00;;
34737;SDS011;39910;47.154;27.614;2023-12-22T07:48:03;13.40;;;12.70;;
34737;SDS011;39910;47.154;27.614;2023-12-22T07:50:29;12.68;;;12.07;;
34737;SDS011;39910;47.154;27.614;2023-12-22T07:52:54;12.45;;;11.85;;
34737;SDS011;39910;47.154;27.614;2023-12-22T07:55:20;12.63;;;12.02;;
34737;SDS011;39910;47.154;27.614;2023-12-22T07:57:45;12.80;;;12.20;;
34737;SDS011;39910;47.154;27.614;2023-12-22T08:00:11;12.60;;;12.00;;
34737;SDS011;39910;47.154;27.614;2023-12-22T08:02:36;12.60;;;12.00;;
34737;SDS011;39910;47.154;27.614;2023-12-22T08:05:02;14.77;;;13.98;;
34737;SDS011;39910;47.154;27.614;2023-12-22T08:07:27;14.52;;;13.73;;
34737;SDS011;39910;47.154;27.614;2023-12-22T08:09:52;13.27;;;12.57;;
34737;SDS011;39910;47.154;27.614;2023-12-22T08:12:18;13.30;;;12.60;;
34737;SDS011;39910;47.154;27.614;2023-12-22T08:14:44;13.23;;;12.52;;
34737;SDS011;39910;47.154;27.614;2023-12-22T08:17:10;14.70;;;13.90;;
34737;SDS011;39910;47.154;27.614;2023-12-22T08:19:36;13.75;;;13.05;;
34737;SDS011;39910;47.154;27.614;2023-12-22T08:22:01;13.30;;;12.60;;
34737;SDS011;39910;47.154;27.614;2023-12-22T08:24:27;13.57;;;12.88;;
34737;SDS011;39910;47.154;27.614;2023-12-22T08:26:52;13.10;;;12.48;;
34737;SDS011;39910;47.154;27.614;2023-12-22T08:29:18;14.05;;;13.35;;
34737;SDS011;39910;47.154;27.614;2023-12-22T08:31:44;12.90;;;12.30;;
34737;SDS011;39910;47.154;27.614;2023-12-22T08:34:09;14.07;;;13.38;;
34737;SDS011;39910;47.154;27.614;2023-12-22T08:36:35;12.98;;;12.38;;
34737;SDS011;39910;47.154;27.614;2023-12-22T08:39:00;11.98;;;11.40;;
34737;SDS011;39910;47.154;27.614;2023-12-22T08:41:26;12.65;;;12.05;;
34737;SDS011;39910;47.154;27.614;2023-12-22T08:43:52;13.48;;;12.77;;
34737;SDS011;39910;47.154;27.614;2023-12-22T08:46:17;12.23;;;11.63;;
34737;SDS011;39910;47.154;27.614;2023-12-22T08:48:43;15.23;;;14.43;;
34737;SDS011;39910;47.154;27.614;2023-12-22T08:51:08;12.48;;;11.88;;
34737;SDS011;39910;47.154;27.614;2023-12-22T08:53:34;12.80;;;12.20;;
34737;SDS011;39910;47.154;27.614;2023-12-22T08:56:02;13.20;;;12.55;;
34737;SDS011;39910;47.154;27.614;2023-12-22T08:58:28;15.10;;;14.30;;
34737;SDS011;39910;47.154;27.614;2023-12-22T09:00:54;13.50;;;12.80;;
34737;SDS011;39910;47.154;27.614;2023-12-22T09:03:19;14.02;;;13.32;;
34737;SDS011;39910;47.154;27.614;2023-12-22T09:05:44;13.80;;;13.10;;
34737;SDS011;39910;47.154;27.614;2023-12-22T09:08:10;13.90;;;13.20;;
34737;SDS011;39910;47.154;27.614;2023-12-22T09:10:35;14.00;;;13.30;;
34737;SDS011;39910;47.154;27.614;2023-12-22T09:13:01;15.02;;;14.23;;
34737;SDS011;39910;47.154;27.614;2023-12-22T09:15:26;14.18;;;13.48;;
34737;SDS011;39910;47.154;27.614;2023-12-22T09:17:52;14.25;;;13.55;;
34737;SDS011;39910;47.154;27.614;2023-12-22T09:20:19;14.50;;;13.70;;
34737;SDS011;39910;47.154;27.614;2023-12-22T09:22:44;13.82;;;13.13;;
34737;SDS011;39910;47.154;27.614;2023-12-22T09:25:09;13.70;;;13.00;;
34737;SDS011;39910;47.154;27.614;2023-12-22T09:27:35;13.93;;;13.23;;
34737;SDS011;39910;47.154;27.614;2023-12-22T09:30:00;14.43;;;13.63;;
34737;SDS011;39910;47.154;27.614;2023-12-22T09:32:26;13.52;;;12.82;;
34737;SDS011;39910;47.154;27.614;2023-12-22T09:34:51;13.75;;;13.05;;
34737;SDS011;39910;47.154;27.614;2023-12-22T09:37:17;13.55;;;12.85;;
34737;SDS011;39910;47.154;27.614;2023-12-22T09:39:42;14.18;;;13.40;;
34737;SDS011;39910;47.154;27.614;2023-12-22T09:42:08;13.45;;;12.75;;
34737;SDS011;39910;47.154;27.614;2023-12-22T09:44:34;15.07;;;14.27;;
34737;SDS011;39910;47.154;27.614;2023-12-22T09:47:01;13.77;;;13.07;;
34737;SDS011;39910;47.154;27.614;2023-12-22T09:49:28;13.80;;;13.10;;
34737;SDS011;39910;47.154;27.614;2023-12-22T09:51:54;14.23;;;13.48;;
34737;SDS011;39910;47.154;27.614;2023-12-22T09:54:20;13.35;;;12.65;;
34737;SDS011;39910;47.154;27.614;2023-12-22T09:56:46;14.05;;;13.35;;
34737;SDS011;39910;47.154;27.614;2023-12-22T09:59:12;13.65;;;12.95;;
34737;SDS011;39910;47.154;27.614;2023-12-22T10:01:44;13.32;;;12.63;;
34737;SDS011;39910;47.154;27.614;2023-12-22T10:04:13;14.25;;;13.52;;
34737;SDS011;39910;47.154;27.614;2023-12-22T10:06:38;13.32;;;12.63;;
34737;SDS011;39910;47.154;27.614;2023-12-22T10:09:05;12.85;;;12.25;;
34737;SDS011;39910;47.154;27.614;2023-12-22T10:11:32;13.75;;;13.05;;
34737;SDS011;39910;47.154;27.614;2023-12-22T10:13:59;14.10;;;13.40;;
34737;SDS011;39910;47.154;27.614;2023-12-22T10:16:24;13.55;;;12.85;;
34737;SDS011;39910;47.154;27.614;2023-12-22T10:18:50;14.07;;;13.38;;
34737;SDS011;39910;47.154;27.614;2023-12-22T10:21:16;14.63;;;13.82;;
34737;SDS011;39910;47.154;27.614;2023-12-22T10:23:41;13.88;;;13.18;;
34737;SDS011;39910;47.154;27.614;2023-12-22T10:26:06;14.73;;;13.93;;
34737;SDS011;39910;47.154;27.614;2023-12-22T10:28:33;15.73;;;14.82;;
34737;SDS011;39910;47.154;27.614;2023-12-22T10:30:58;14.88;;;14.07;;
34737;SDS011;39910;47.154;27.614;2023-12-22T10:33:29;14.68;;;13.88;;
34737;SDS011;39910;47.154;27.614;2023-12-22T10:35:55;14.70;;;13.90;;
34737;SDS011;39910;47.154;27.614;2023-12-22T10:38:20;14.20;;;13.50;;
34737;SDS011;39910;47.154;27.614;2023-12-22T10:40:46;15.32;;;14.52;;
34737;SDS011;39910;47.154;27.614;2023-12-22T10:43:12;14.63;;;13.82;;
34737;SDS011;39910;47.154;27.614;2023-12-22T10:45:38;14.63;;;13.88;;
34737;SDS011;39910;47.154;27.614;2023-12-22T10:48:05;13.93;;;13.23;;
34737;SDS011;39910;47.154;27.614;2023-12-22T10:50:30;14.63;;;13.82;;
34737;SDS011;39910;47.154;27.614;2023-12-22T10:52:56;16.33;;;15.43;;
34737;SDS011;39910;47.154;27.614;2023-12-22T10:55:21;15.18;;;14.38;;
34737;SDS011;39910;47.154;27.614;2023-12-22T10:57:46;14.85;;;14.05;;
34737;SDS011;39910;47.154;27.614;2023-12-22T11:00:12;15.13;;;14.32;;
34737;SDS011;39910;47.154;27.614;2023-12-22T11:02:38;14.60;;;13.80;;
34737;SDS011;39910;47.154;27.614;2023-12-22T11:05:06;15.02;;;14.23;;
34737;SDS011;39910;47.154;27.614;2023-12-22T11:07:35;14.85;;;14.05;;
34737;SDS011;39910;47.154;27.614;2023-12-22T11:10:02;15.90;;;15.00;;
34737;SDS011;39910;47.154;27.614;2023-12-22T11:12:28;13.80;;;13.10;;
34737;SDS011;39910;47.154;27.614;2023-12-22T11:14:56;13.98;;;13.27;;
34737;SDS011;39910;47.154;27.614;2023-12-22T11:17:23;13.85;;;13.15;;
34737;SDS011;39910;47.154;27.614;2023-12-22T11:19:54;14.50;;;13.75;;
34737;SDS011;39910;47.154;27.614;2023-12-22T11:22:21;13.15;;;12.55;;
34737;SDS011;39910;47.154;27.614;2023-12-22T11:24:46;14.43;;;13.73;;
34737;SDS011;39910;47.154;27.614;2023-12-22T11:27:13;14.15;;;13.45;;
34737;SDS011;39910;47.154;27.614;2023-12-22T11:29:41;14.95;;;14.15;;
34737;SDS011;39910;47.154;27.614;2023-12-22T11:32:07;14.80;;;14.02;;
34737;SDS011;39910;47.154;27.614;2023-12-22T11:34:32;14.50;;;13.77;;
34737;SDS011;39910;47.154;27.614;2023-12-22T11:37:01;15.38;;;14.57;;
34737;SDS011;39910;47.154;27.614;2023-12-22T11:39:28;15.82;;;14.98;;
34737;SDS011;39910;47.154;27.614;2023-12-22T11:41:54;14.48;;;13.77;;
34737;SDS011;39910;47.154;27.614;2023-12-22T11:44:20;14.50;;;13.80;;
34737;SDS011;39910;47.154;27.614;2023-12-22T11:46:46;13.85;;;13.15;;
34737;SDS011;39910;47.154;27.614;2023-12-22T11:49:12;14.05;;;13.35;;
34737;SDS011;39910;47.154;27.614;2023-12-22T11:51:37;13.95;;;13.25;;
34737;SDS011;39910;47.154;27.614;2023-12-22T11:54:04;14.88;;;14.07;;
34737;SDS011;39910;47.154;27.614;2023-12-22T11:56:50;14.85;;;14.05;;
34737;SDS011;39910;47.154;27.614;2023-12-22T11:59:16;14.05;;;13.35;;
34737;SDS011;39910;47.154;27.614;2023-12-22T12:01:41;14.90;;;14.10;;
34737;SDS011;39910;47.154;27.614;2023-12-22T12:04:07;14.07;;;13.38;;
34737;SDS011;39910;47.154;27.614;2023-12-22T12:06:33;15.07;;;14.27;;
34737;SDS011;39910;47.154;27.614;2023-12-22T12:09:05;14.40;;;13.60;;
34737;SDS011;39910;47.154;27.614;2023-12-22T12:12:33;12.80;;;12.20;;
34737;SDS011;39910;47.154;27.614;2023-12-22T12:14:33;13.88;;;13.18;;
34737;SDS011;39910;47.154;27.614;2023-12-22T12:17:08;14.75;;;13.95;;
34737;SDS011;39910;47.154;27.614;2023-12-22T12:19:35;13.88;;;13.18;;
34737;SDS011;39910;47.154;27.614;2023-12-22T12:22:00;14.15;;;13.35;;
34737;SDS011;39910;47.154;27.614;2023-12-22T12:24:26;13.90;;;13.18;;
34737;SDS011;39910;47.154;27.614;2023-12-22T12:26:52;15.20;;;14.30;;
34737;SDS011;39910;47.154;27.614;2023-12-22T12:29:17;13.95;;;13.23;;
34737;SDS011;39910;47.154;27.614;2023-12-22T12:31:43;12.85;;;12.23;;
34737;SDS011;39910;47.154;27.614;2023-12-22T12:34:10;13.82;;;13.10;;
34737;SDS011;39910;47.154;27.614;2023-12-22T12:36:35;13.07;;;12.38;;
34737;SDS011;39910;47.154;27.614;2023-12-22T12:39:06;14.20;;;13.40;;
34737;SDS011;39910;47.154;27.614;2023-12-22T12:41:40;13.93;;;13.13;;
34737;SDS011;39910;47.154;27.614;2023-12-22T12:44:06;13.63;;;12.93;;
34737;SDS011;39910;47.154;27.614;2023-12-22T12:46:32;14.82;;;14.00;;
34737;SDS011;39910;47.154;27.614;2023-12-22T12:49:07;12.38;;;11.77;;
34737;SDS011;39910;47.154;27.614;2023-12-22T12:51:39;13.55;;;12.85;;
34737;SDS011;39910;47.154;27.614;2023-12-22T12:54:05;14.43;;;13.63;;
34737;SDS011;39910;47.154;27.614;2023-12-22T12:56:40;13.93;;;13.13;;
34737;SDS011;39910;47.154;27.614;2023-12-22T12:59:09;13.65;;;12.90;;
34737;SDS011;39910;47.154;27.614;2023-12-22T13:01:41;12.38;;;11.77;;
34737;SDS011;39910;47.154;27.614;2023-12-22T13:04:07;13.18;;;12.48;;
34737;SDS011;39910;47.154;27.614;2023-12-22T13:06:32;16.20;;;15.20;;
34737;SDS011;39910;47.154;27.614;2023-12-22T13:08:58;13.35;;;12.65;;
34737;SDS011;39910;47.154;27.614;2023-12-22T13:11:26;13.23;;;12.52;;
34737;SDS011;39910;47.154;27.614;2023-12-22T13:13:52;13.30;;;12.60;;
34737;SDS011;39910;47.154;27.614;2023-12-22T13:16:18;13.20;;;12.50;;
34737;SDS011;39910;47.154;27.614;2023-12-22T13:18:44;12.38;;;11.77;;
34737;SDS011;39910;47.154;27.614;2023-12-22T13:21:09;14.05;;;13.25;;
34737;SDS011;39910;47.154;27.614;2023-12-22T13:23:35;13.27;;;12.57;;
34737;SDS011;39910;47.154;27.614;2023-12-22T13:26:00;13.75;;;12.98;;
34737;SDS011;39910;47.154;27.614;2023-12-22T13:28:26;12.98;;;12.27;;
34737;SDS011;39910;47.154;27.614;2023-12-22T13:30:52;13.20;;;12.50;;
34737;SDS011;39910;47.154;27.614;2023-12-22T13:33:17;13.13;;;12.43;;
34737;SDS011;39910;47.154;27.614;2023-12-22T13:35:43;14.07;;;13.27;;
34737;SDS011;39910;47.154;27.614;2023-12-22T13:38:08;13.40;;;12.70;;
34737;SDS011;39910;47.154;27.614;2023-12-22T13:40:34;13.35;;;12.65;;
34737;SDS011;39910;47.154;27.614;2023-12-22T13:43:00;13.23;;;12.52;;
34737;SDS011;39910;47.154;27.614;2023-12-22T13:45:27;13.75;;;13.00;;
34737;SDS011;39910;47.154;27.614;2023-12-22T13:47:53;12.40;;;11.80;;
34737;SDS011;39910;47.154;27.614;2023-12-22T13:50:18;13.45;;;12.75;;
34737;SDS011;39910;47.154;27.614;2023-12-22T13:52:44;13.38;;;12.68;;
34737;SDS011;39910;47.154;27.614;2023-12-22T13:55:13;13.63;;;12.88;;
34737;SDS011;39910;47.154;27.614;2023-12-22T13:57:40;13.73;;;12.93;;
34737;SDS011;39910;47.154;27.614;2023-12-22T14:02:46;14.48;;;13.68;;
34737;SDS011;39910;47.154;27.614;2023-12-22T14:05:11;12.85;;;12.15;;
34737;SDS011;39910;47.154;27.614;2023-12-22T14:07:37;14.48;;;13.65;;
34737;SDS011;39910;47.154;27.614;2023-12-22T14:10:05;13.70;;;12.93;;